sensor_id;sensor_type;location;lat;lon;timestamp;temperature;humidity
43561;DHT22;32305;46.410;17.394;2023-08-07T00:01:55;24.70;58.30
43561;DHT22;32305;46.410;17.394;2023-08-07T00:04:22;24.70;58.40
43561;DHT22;32305;46.410;17.394;2023-08-07T00:06:49;24.70;58.40
43561;DHT22;32305;46.410;17.394;2023-08-07T00:09:16;24.70;58.30
43561;DHT22;32305;46.410;17.394;2023-08-07T00:11:43;24.70;58.40
43561;DHT22;32305;46.410;17.394;2023-08-07T00:14:10;24.70;58.40
43561;DHT22;32305;46.410;17.394;2023-08-07T00:16:37;24.70;58.40
43561;DHT22;32305;46.410;17.394;2023-08-07T00:19:04;24.70;58.40
43561;DHT22;32305;46.410;17.394;2023-08-07T00:21:30;24.70;58.40
43561;DHT22;32305;46.410;17.394;2023-08-07T00:23:57;24.70;58.40
43561;DHT22;32305;46.410;17.394;2023-08-07T00:26:24;24.70;58.40
43561;DHT22;32305;46.410;17.394;2023-08-07T00:28:52;24.70;58.40
43561;DHT22;32305;46.410;17.394;2023-08-07T00:31:18;24.70;58.40
43561;DHT22;32305;46.410;17.394;2023-08-07T00:33:45;24.70;58.40
43561;DHT22;32305;46.410;17.394;2023-08-07T00:36:13;24.70;58.40
43561;DHT22;32305;46.410;17.394;2023-08-07T00:38:39;24.70;58.40
43561;DHT22;32305;46.410;17.394;2023-08-07T00:41:06;24.70;58.40
43561;DHT22;32305;46.410;17.394;2023-08-07T00:43:34;24.70;58.40
43561;DHT22;32305;46.410;17.394;2023-08-07T00:46:01;24.70;58.40
43561;DHT22;32305;46.410;17.394;2023-08-07T00:48:28;24.70;58.40
43561;DHT22;32305;46.410;17.394;2023-08-07T00:50:56;24.70;58.40
43561;DHT22;32305;46.410;17.394;2023-08-07T00:53:23;24.70;58.30
43561;DHT22;32305;46.410;17.394;2023-08-07T00:55:50;24.70;58.30
43561;DHT22;32305;46.410;17.394;2023-08-07T00:58:17;24.70;58.30
43561;DHT22;32305;46.410;17.394;2023-08-07T01:00:44;24.70;58.30
43561;DHT22;32305;46.410;17.394;2023-08-07T01:03:11;24.70;58.20
43561;DHT22;32305;46.410;17.394;2023-08-07T01:05:39;24.70;58.30
43561;DHT22;32305;46.410;17.394;2023-08-07T01:08:06;24.70;58.20
43561;DHT22;32305;46.410;17.394;2023-08-07T01:10:45;24.70;58.20
43561;DHT22;32305;46.410;17.394;2023-08-07T01:13:18;24.70;58.20
43561;DHT22;32305;46.410;17.394;2023-08-07T01:15:46;24.70;58.20
43561;DHT22;32305;46.410;17.394;2023-08-07T01:18:15;24.70;58.20
43561;DHT22;32305;46.410;17.394;2023-08-07T01:20:42;24.70;58.20
43561;DHT22;32305;46.410;17.394;2023-08-07T01:23:09;24.70;58.20
43561;DHT22;32305;46.410;17.394;2023-08-07T01:25:36;24.70;58.20
43561;DHT22;32305;46.410;17.394;2023-08-07T01:28:16;24.70;58.20
43561;DHT22;32305;46.410;17.394;2023-08-07T01:30:45;24.70;58.20
43561;DHT22;32305;46.410;17.394;2023-08-07T01:33:22;24.70;58.20
43561;DHT22;32305;46.410;17.394;2023-08-07T01:35:53;24.70;58.20
43561;DHT22;32305;46.410;17.394;2023-08-07T01:38:20;24.70;58.20
43561;DHT22;32305;46.410;17.394;2023-08-07T01:40:48;24.70;58.30
43561;DHT22;32305;46.410;17.394;2023-08-07T01:43:15;24.70;58.30
43561;DHT22;32305;46.410;17.394;2023-08-07T01:45:43;24.70;58.30
43561;DHT22;32305;46.410;17.394;2023-08-07T01:48:10;24.70;58.20
43561;DHT22;32305;46.410;17.394;2023-08-07T01:50:37;24.70;58.20
43561;DHT22;32305;46.410;17.394;2023-08-07T01:53:05;24.70;58.30
43561;DHT22;32305;46.410;17.394;2023-08-07T01:55:32;24.70;58.20
43561;DHT22;32305;46.410;17.394;2023-08-07T01:57:59;24.70;58.30
43561;DHT22;32305;46.410;17.394;2023-08-07T02:00:25;24.70;58.30
43561;DHT22;32305;46.410;17.394;2023-08-07T02:02:52;24.70;58.30
43561;DHT22;32305;46.410;17.394;2023-08-07T02:05:19;24.70;58.30
43561;DHT22;32305;46.410;17.394;2023-08-07T02:07:46;24.70;58.30
43561;DHT22;32305;46.410;17.394;2023-08-07T02:10:13;24.70;58.30
43561;DHT22;32305;46.410;17.394;2023-08-07T02:12:40;24.70;58.30
43561;DHT22;32305;46.410;17.394;2023-08-07T02:15:07;24.70;58.30
43561;DHT22;32305;46.410;17.394;2023-08-07T02:17:34;24.60;58.20
43561;DHT22;32305;46.410;17.394;2023-08-07T02:20:02;24.70;58.30
43561;DHT22;32305;46.410;17.394;2023-08-07T02:22:29;24.70;58.30
43561;DHT22;32305;46.410;17.394;2023-08-07T02:24:56;24.60;58.30
43561;DHT22;32305;46.410;17.394;2023-08-07T02:27:26;24.70;58.30
43561;DHT22;32305;46.410;17.394;2023-08-07T02:29:53;24.60;58.30
43561;DHT22;32305;46.410;17.394;2023-08-07T02:32:20;24.60;58.20
43561;DHT22;32305;46.410;17.394;2023-08-07T02:34:47;24.60;58.20
43561;DHT22;32305;46.410;17.394;2023-08-07T02:37:14;24.60;58.20
43561;DHT22;32305;46.410;17.394;2023-08-07T02:39:42;24.70;58.20
43561;DHT22;32305;46.410;17.394;2023-08-07T02:42:09;24.70;58.20
43561;DHT22;32305;46.410;17.394;2023-08-07T02:44:36;24.70;58.20
43561;DHT22;32305;46.410;17.394;2023-08-07T02:47:03;24.70;58.10
43561;DHT22;32305;46.410;17.394;2023-08-07T02:49:30;24.70;58.10
43561;DHT22;32305;46.410;17.394;2023-08-07T02:51:57;24.70;58.10
43561;DHT22;32305;46.410;17.394;2023-08-07T02:54:24;24.70;58.10
43561;DHT22;32305;46.410;17.394;2023-08-07T02:56:51;24.70;58.10
43561;DHT22;32305;46.410;17.394;2023-08-07T02:59:18;24.70;58.00
43561;DHT22;32305;46.410;17.394;2023-08-07T03:01:45;24.70;58.00
43561;DHT22;32305;46.410;17.394;2023-08-07T03:04:12;24.70;58.00
43561;DHT22;32305;46.410;17.394;2023-08-07T03:06:39;24.70;58.00
43561;DHT22;32305;46.410;17.394;2023-08-07T03:09:05;24.70;58.00
43561;DHT22;32305;46.410;17.394;2023-08-07T03:11:32;24.70;58.00
43561;DHT22;32305;46.410;17.394;2023-08-07T03:13:59;24.70;58.00
43561;DHT22;32305;46.410;17.394;2023-08-07T03:16:26;24.70;58.10
43561;DHT22;32305;46.410;17.394;2023-08-07T03:18:53;24.70;58.10
43561;DHT22;32305;46.410;17.394;2023-08-07T03:21:20;24.70;58.10
43561;DHT22;32305;46.410;17.394;2023-08-07T03:23:47;24.70;58.20
43561;DHT22;32305;46.410;17.394;2023-08-07T03:26:14;24.70;58.20
43561;DHT22;32305;46.410;17.394;2023-08-07T03:28:45;24.60;58.10
43561;DHT22;32305;46.410;17.394;2023-08-07T03:31:14;24.60;58.10
43561;DHT22;32305;46.410;17.394;2023-08-07T03:33:41;24.70;58.20
43561;DHT22;32305;46.410;17.394;2023-08-07T03:36:09;24.60;58.10
43561;DHT22;32305;46.410;17.394;2023-08-07T03:38:36;24.60;58.20
43561;DHT22;32305;46.410;17.394;2023-08-07T03:41:03;24.60;58.10
43561;DHT22;32305;46.410;17.394;2023-08-07T03:43:30;24.60;58.10
43561;DHT22;32305;46.410;17.394;2023-08-07T03:45:57;24.60;58.20
43561;DHT22;32305;46.410;17.394;2023-08-07T03:48:28;24.60;58.10
43561;DHT22;32305;46.410;17.394;2023-08-07T03:51:02;24.60;58.10
43561;DHT22;32305;46.410;17.394;2023-08-07T03:53:29;24.70;58.20
43561;DHT22;32305;46.410;17.394;2023-08-07T03:55:56;24.60;58.10
43561;DHT22;32305;46.410;17.394;2023-08-07T03:58:23;24.60;58.10
43561;DHT22;32305;46.410;17.394;2023-08-07T04:00:51;24.60;58.10
43561;DHT22;32305;46.410;17.394;2023-08-07T04:03:19;24.60;58.10
43561;DHT22;32305;46.410;17.394;2023-08-07T04:05:46;24.60;58.10
43561;DHT22;32305;46.410;17.394;2023-08-07T04:08:13;24.60;58.00
43561;DHT22;32305;46.410;17.394;2023-08-07T04:10:40;24.70;58.00
43561;DHT22;32305;46.410;17.394;2023-08-07T04:13:07;24.60;58.00
43561;DHT22;32305;46.410;17.394;2023-08-07T04:15:34;24.70;58.00
43561;DHT22;32305;46.410;17.394;2023-08-07T04:18:01;24.70;58.00
43561;DHT22;32305;46.410;17.394;2023-08-07T04:20:28;24.70;58.00
43561;DHT22;32305;46.410;17.394;2023-08-07T04:22:54;24.70;57.90
43561;DHT22;32305;46.410;17.394;2023-08-07T04:25:21;24.70;57.90
43561;DHT22;32305;46.410;17.394;2023-08-07T04:27:48;24.70;57.80
43561;DHT22;32305;46.410;17.394;2023-08-07T04:30:15;24.70;57.70
43561;DHT22;32305;46.410;17.394;2023-08-07T04:32:42;24.70;57.70
43561;DHT22;32305;46.410;17.394;2023-08-07T04:35:09;24.70;57.60
43561;DHT22;32305;46.410;17.394;2023-08-07T04:37:36;24.70;57.60
43561;DHT22;32305;46.410;17.394;2023-08-07T04:40:03;24.70;57.70
43561;DHT22;32305;46.410;17.394;2023-08-07T04:42:31;24.60;57.70
43561;DHT22;32305;46.410;17.394;2023-08-07T04:44:59;24.50;57.90
43561;DHT22;32305;46.410;17.394;2023-08-07T04:47:27;24.30;57.50
43561;DHT22;32305;46.410;17.394;2023-08-07T04:49:54;24.10;56.10
43561;DHT22;32305;46.410;17.394;2023-08-07T04:52:21;23.80;54.90
43561;DHT22;32305;46.410;17.394;2023-08-07T04:54:52;23.50;52.80
43561;DHT22;32305;46.410;17.394;2023-08-07T04:57:19;23.30;51.40
43561;DHT22;32305;46.410;17.394;2023-08-07T04:59:46;22.90;50.70
43561;DHT22;32305;46.410;17.394;2023-08-07T05:02:13;22.70;50.10
43561;DHT22;32305;46.410;17.394;2023-08-07T05:04:40;22.40;49.60
43561;DHT22;32305;46.410;17.394;2023-08-07T05:07:07;22.20;49.50
43561;DHT22;32305;46.410;17.394;2023-08-07T05:09:34;21.80;50.10
43561;DHT22;32305;46.410;17.394;2023-08-07T05:12:01;21.60;49.40
43561;DHT22;32305;46.410;17.394;2023-08-07T05:14:31;21.30;51.50
43561;DHT22;32305;46.410;17.394;2023-08-07T05:16:58;21.10;50.20
43561;DHT22;32305;46.410;17.394;2023-08-07T05:19:26;20.90;52.90
43561;DHT22;32305;46.410;17.394;2023-08-07T05:21:53;20.70;51.00
43561;DHT22;32305;46.410;17.394;2023-08-07T05:24:21;20.50;51.60
43561;DHT22;32305;46.410;17.394;2023-08-07T05:26:48;20.40;52.00
43561;DHT22;32305;46.410;17.394;2023-08-07T05:29:16;20.20;51.80
43561;DHT22;32305;46.410;17.394;2023-08-07T05:31:42;20.10;51.50
43561;DHT22;32305;46.410;17.394;2023-08-07T05:34:09;20.00;52.10
43561;DHT22;32305;46.410;17.394;2023-08-07T05:36:36;19.80;53.10
43561;DHT22;32305;46.410;17.394;2023-08-07T05:39:04;19.70;52.60
43561;DHT22;32305;46.410;17.394;2023-08-07T05:41:32;19.60;52.70
43561;DHT22;32305;46.410;17.394;2023-08-07T05:43:59;19.60;53.30
43561;DHT22;32305;46.410;17.394;2023-08-07T05:46:26;19.50;54.30
43561;DHT22;32305;46.410;17.394;2023-08-07T05:48:53;19.50;53.60
43561;DHT22;32305;46.410;17.394;2023-08-07T05:51:22;19.40;53.90
43561;DHT22;32305;46.410;17.394;2023-08-07T05:53:54;19.30;54.20
43561;DHT22;32305;46.410;17.394;2023-08-07T05:56:21;19.30;53.70
43561;DHT22;32305;46.410;17.394;2023-08-07T05:58:48;19.20;53.40
43561;DHT22;32305;46.410;17.394;2023-08-07T06:01:15;19.20;54.90
43561;DHT22;32305;46.410;17.394;2023-08-07T06:03:45;19.10;54.10
43561;DHT22;32305;46.410;17.394;2023-08-07T06:06:13;19.10;53.70
43561;DHT22;32305;46.410;17.394;2023-08-07T06:08:40;19.10;54.10
43561;DHT22;32305;46.410;17.394;2023-08-07T06:11:07;19.00;54.80
43561;DHT22;32305;46.410;17.394;2023-08-07T06:13:34;19.00;54.50
43561;DHT22;32305;46.410;17.394;2023-08-07T06:16:02;19.00;53.70
43561;DHT22;32305;46.410;17.394;2023-08-07T06:18:30;19.00;54.30
43561;DHT22;32305;46.410;17.394;2023-08-07T06:20:57;19.00;53.60
43561;DHT22;32305;46.410;17.394;2023-08-07T06:23:24;19.00;53.00
43561;DHT22;32305;46.410;17.394;2023-08-07T06:25:51;18.90;53.30
43561;DHT22;32305;46.410;17.394;2023-08-07T06:28:24;18.90;53.50
43561;DHT22;32305;46.410;17.394;2023-08-07T06:30:51;18.90;53.20
43561;DHT22;32305;46.410;17.394;2023-08-07T06:33:18;18.80;54.40
43561;DHT22;32305;46.410;17.394;2023-08-07T06:35:46;18.80;55.30
43561;DHT22;32305;46.410;17.394;2023-08-07T06:38:14;18.70;54.80
43561;DHT22;32305;46.410;17.394;2023-08-07T06:40:40;18.70;56.50
43561;DHT22;32305;46.410;17.394;2023-08-07T06:43:07;18.70;57.70
43561;DHT22;32305;46.410;17.394;2023-08-07T06:45:34;18.60;55.20
43561;DHT22;32305;46.410;17.394;2023-08-07T06:48:01;18.60;55.10
43561;DHT22;32305;46.410;17.394;2023-08-07T06:50:29;18.60;54.80
43561;DHT22;32305;46.410;17.394;2023-08-07T06:52:56;18.60;54.90
43561;DHT22;32305;46.410;17.394;2023-08-07T06:55:23;18.60;54.10
43561;DHT22;32305;46.410;17.394;2023-08-07T06:57:50;18.60;55.50
43561;DHT22;32305;46.410;17.394;2023-08-07T07:00:17;18.60;57.70
43561;DHT22;32305;46.410;17.394;2023-08-07T07:02:44;18.60;57.90
43561;DHT22;32305;46.410;17.394;2023-08-07T07:05:11;18.50;57.20
43561;DHT22;32305;46.410;17.394;2023-08-07T07:07:38;18.40;57.80
43561;DHT22;32305;46.410;17.394;2023-08-07T07:10:05;18.40;58.10
43561;DHT22;32305;46.410;17.394;2023-08-07T07:12:32;18.40;58.30
43561;DHT22;32305;46.410;17.394;2023-08-07T07:15:01;18.40;58.60
43561;DHT22;32305;46.410;17.394;2023-08-07T07:17:28;18.50;59.00
43561;DHT22;32305;46.410;17.394;2023-08-07T07:19:56;18.40;58.50
43561;DHT22;32305;46.410;17.394;2023-08-07T07:22:23;18.40;58.60
43561;DHT22;32305;46.410;17.394;2023-08-07T07:24:50;18.40;59.30
43561;DHT22;32305;46.410;17.394;2023-08-07T07:27:18;18.40;58.50
43561;DHT22;32305;46.410;17.394;2023-08-07T07:29:48;18.40;58.00
43561;DHT22;32305;46.410;17.394;2023-08-07T07:32:15;18.40;58.20
43561;DHT22;32305;46.410;17.394;2023-08-07T07:34:43;18.40;58.00
43561;DHT22;32305;46.410;17.394;2023-08-07T07:37:10;18.40;57.90
43561;DHT22;32305;46.410;17.394;2023-08-07T07:39:38;18.30;58.80
43561;DHT22;32305;46.410;17.394;2023-08-07T07:42:05;18.30;59.60
43561;DHT22;32305;46.410;17.394;2023-08-07T07:44:32;18.30;58.80
43561;DHT22;32305;46.410;17.394;2023-08-07T07:47:00;18.30;58.90
43561;DHT22;32305;46.410;17.394;2023-08-07T07:49:27;18.40;59.30
43561;DHT22;32305;46.410;17.394;2023-08-07T07:51:54;18.40;58.60
43561;DHT22;32305;46.410;17.394;2023-08-07T07:54:21;18.40;58.10
43561;DHT22;32305;46.410;17.394;2023-08-07T07:56:48;18.50;58.60
43561;DHT22;32305;46.410;17.394;2023-08-07T07:59:15;18.50;58.00
43561;DHT22;32305;46.410;17.394;2023-08-07T08:01:42;18.50;57.80
43561;DHT22;32305;46.410;17.394;2023-08-07T08:04:10;18.50;57.50
43561;DHT22;32305;46.410;17.394;2023-08-07T08:06:39;18.50;58.00
43561;DHT22;32305;46.410;17.394;2023-08-07T08:09:06;18.60;57.60
43561;DHT22;32305;46.410;17.394;2023-08-07T08:11:36;18.60;57.70
43561;DHT22;32305;46.410;17.394;2023-08-07T08:14:11;18.70;57.60
43561;DHT22;32305;46.410;17.394;2023-08-07T08:16:38;18.70;57.90
43561;DHT22;32305;46.410;17.394;2023-08-07T08:19:05;18.70;57.10
43561;DHT22;32305;46.410;17.394;2023-08-07T08:21:34;18.70;57.80
43561;DHT22;32305;46.410;17.394;2023-08-07T08:24:01;18.70;58.10
43561;DHT22;32305;46.410;17.394;2023-08-07T08:26:29;18.80;58.20
43561;DHT22;32305;46.410;17.394;2023-08-07T08:28:56;18.80;58.20
43561;DHT22;32305;46.410;17.394;2023-08-07T08:31:23;18.80;58.00
43561;DHT22;32305;46.410;17.394;2023-08-07T08:33:51;18.90;58.40
43561;DHT22;32305;46.410;17.394;2023-08-07T08:36:18;18.90;58.10
43561;DHT22;32305;46.410;17.394;2023-08-07T08:38:45;19.00;58.20
43561;DHT22;32305;46.410;17.394;2023-08-07T08:41:15;19.00;58.00
43561;DHT22;32305;46.410;17.394;2023-08-07T08:43:43;19.00;57.90
43561;DHT22;32305;46.410;17.394;2023-08-07T08:46:14;19.10;58.10
43561;DHT22;32305;46.410;17.394;2023-08-07T08:48:42;19.10;57.40
43561;DHT22;32305;46.410;17.394;2023-08-07T08:51:11;19.20;57.60
43561;DHT22;32305;46.410;17.394;2023-08-07T08:53:39;19.20;57.80
43561;DHT22;32305;46.410;17.394;2023-08-07T08:56:07;19.20;58.00
43561;DHT22;32305;46.410;17.394;2023-08-07T08:58:34;19.20;57.30
43561;DHT22;32305;46.410;17.394;2023-08-07T09:01:01;19.30;57.30
43561;DHT22;32305;46.410;17.394;2023-08-07T09:03:29;19.30;57.20
43561;DHT22;32305;46.410;17.394;2023-08-07T09:05:57;19.30;57.10
43561;DHT22;32305;46.410;17.394;2023-08-07T09:08:25;19.30;57.20
43561;DHT22;32305;46.410;17.394;2023-08-07T09:10:53;19.30;57.30
43561;DHT22;32305;46.410;17.394;2023-08-07T09:13:22;19.40;57.20
43561;DHT22;32305;46.410;17.394;2023-08-07T09:15:50;19.40;56.40
43561;DHT22;32305;46.410;17.394;2023-08-07T09:18:18;19.50;56.50
43561;DHT22;32305;46.410;17.394;2023-08-07T09:20:47;19.50;56.40
43561;DHT22;32305;46.410;17.394;2023-08-07T09:23:15;19.60;56.20
43561;DHT22;32305;46.410;17.394;2023-08-07T09:25:44;19.60;56.40
43561;DHT22;32305;46.410;17.394;2023-08-07T09:28:11;19.70;56.10
43561;DHT22;32305;46.410;17.394;2023-08-07T09:30:38;19.70;56.00
43561;DHT22;32305;46.410;17.394;2023-08-07T09:33:05;19.70;56.30
43561;DHT22;32305;46.410;17.394;2023-08-07T09:35:33;19.70;56.10
43561;DHT22;32305;46.410;17.394;2023-08-07T09:38:01;19.70;56.00
43561;DHT22;32305;46.410;17.394;2023-08-07T09:40:29;19.70;55.20
43561;DHT22;32305;46.410;17.394;2023-08-07T09:42:56;19.70;56.00
43561;DHT22;32305;46.410;17.394;2023-08-07T09:45:24;19.70;56.20
43561;DHT22;32305;46.410;17.394;2023-08-07T09:47:58;19.60;56.50
43561;DHT22;32305;46.410;17.394;2023-08-07T09:50:26;19.60;56.40
43561;DHT22;32305;46.410;17.394;2023-08-07T09:52:53;19.60;56.90
43561;DHT22;32305;46.410;17.394;2023-08-07T09:55:21;19.60;56.50
43561;DHT22;32305;46.410;17.394;2023-08-07T09:57:49;19.50;56.30
43561;DHT22;32305;46.410;17.394;2023-08-07T10:00:16;19.50;56.00
43561;DHT22;32305;46.410;17.394;2023-08-07T10:02:47;19.50;55.20
43561;DHT22;32305;46.410;17.394;2023-08-07T10:05:15;19.60;55.60
43561;DHT22;32305;46.410;17.394;2023-08-07T10:07:42;19.50;55.40
43561;DHT22;32305;46.410;17.394;2023-08-07T10:10:10;19.60;55.00
43561;DHT22;32305;46.410;17.394;2023-08-07T10:12:37;19.60;54.80
43561;DHT22;32305;46.410;17.394;2023-08-07T10:15:05;19.50;54.20
43561;DHT22;32305;46.410;17.394;2023-08-07T10:17:33;19.50;54.60
43561;DHT22;32305;46.410;17.394;2023-08-07T10:20:00;19.50;54.30
43561;DHT22;32305;46.410;17.394;2023-08-07T10:22:29;19.40;54.50
43561;DHT22;32305;46.410;17.394;2023-08-07T10:24:57;19.40;53.60
43561;DHT22;32305;46.410;17.394;2023-08-07T10:27:24;19.30;54.40
43561;DHT22;32305;46.410;17.394;2023-08-07T10:29:52;19.30;54.50
43561;DHT22;32305;46.410;17.394;2023-08-07T10:32:21;19.30;53.90
43561;DHT22;32305;46.410;17.394;2023-08-07T10:34:51;19.30;53.90
43561;DHT22;32305;46.410;17.394;2023-08-07T10:40:07;19.30;54.30
43561;DHT22;32305;46.410;17.394;2023-08-07T10:42:56;19.30;54.10
43561;DHT22;32305;46.410;17.394;2023-08-07T10:45:26;19.30;54.30
43561;DHT22;32305;46.410;17.394;2023-08-07T10:47:57;19.30;54.10
43561;DHT22;32305;46.410;17.394;2023-08-07T10:50:28;19.40;53.60
43561;DHT22;32305;46.410;17.394;2023-08-07T10:52:59;19.40;53.40
43561;DHT22;32305;46.410;17.394;2023-08-07T10:55:28;19.40;53.60
43561;DHT22;32305;46.410;17.394;2023-08-07T10:57:57;19.40;53.50
43561;DHT22;32305;46.410;17.394;2023-08-07T11:00:27;19.30;53.80
43561;DHT22;32305;46.410;17.394;2023-08-07T11:02:54;19.30;54.20
43561;DHT22;32305;46.410;17.394;2023-08-07T11:05:24;19.30;54.70
43561;DHT22;32305;46.410;17.394;2023-08-07T11:07:52;19.20;53.60
43561;DHT22;32305;46.410;17.394;2023-08-07T11:10:20;19.20;53.10
43561;DHT22;32305;46.410;17.394;2023-08-07T11:12:48;19.20;53.10
43561;DHT22;32305;46.410;17.394;2023-08-07T11:15:15;19.30;53.70
43561;DHT22;32305;46.410;17.394;2023-08-07T11:17:44;19.30;52.40
43561;DHT22;32305;46.410;17.394;2023-08-07T11:20:13;19.30;52.20
43561;DHT22;32305;46.410;17.394;2023-08-07T11:22:40;19.20;52.90
43561;DHT22;32305;46.410;17.394;2023-08-07T11:25:07;19.20;52.80
43561;DHT22;32305;46.410;17.394;2023-08-07T11:27:37;19.20;52.30
43561;DHT22;32305;46.410;17.394;2023-08-07T11:30:04;19.20;52.00
43561;DHT22;32305;46.410;17.394;2023-08-07T11:32:31;19.20;52.50
43561;DHT22;32305;46.410;17.394;2023-08-07T11:34:58;19.20;52.60
43561;DHT22;32305;46.410;17.394;2023-08-07T11:37:26;19.20;52.30
43561;DHT22;32305;46.410;17.394;2023-08-07T11:39:59;19.20;52.30
43561;DHT22;32305;46.410;17.394;2023-08-07T11:42:27;19.20;51.90
43561;DHT22;32305;46.410;17.394;2023-08-07T11:44:54;19.10;51.80
43561;DHT22;32305;46.410;17.394;2023-08-07T11:47:21;19.10;51.60
43561;DHT22;32305;46.410;17.394;2023-08-07T11:49:48;19.10;52.00
43561;DHT22;32305;46.410;17.394;2023-08-07T11:52:15;19.20;51.80
43561;DHT22;32305;46.410;17.394;2023-08-07T11:54:46;19.20;52.10
43561;DHT22;32305;46.410;17.394;2023-08-07T11:57:17;19.10;51.90
43561;DHT22;32305;46.410;17.394;2023-08-07T11:59:47;19.10;51.90
43561;DHT22;32305;46.410;17.394;2023-08-07T12:02:14;19.20;52.20
43561;DHT22;32305;46.410;17.394;2023-08-07T12:04:41;19.10;52.50
43561;DHT22;32305;46.410;17.394;2023-08-07T12:07:08;19.10;52.40
43561;DHT22;32305;46.410;17.394;2023-08-07T12:09:37;19.10;52.50
43561;DHT22;32305;46.410;17.394;2023-08-07T12:12:05;19.20;52.60
43561;DHT22;32305;46.410;17.394;2023-08-07T12:14:32;19.10;52.80
43561;DHT22;32305;46.410;17.394;2023-08-07T12:17:02;19.20;53.10
43561;DHT22;32305;46.410;17.394;2023-08-07T12:19:37;19.20;53.10
43561;DHT22;32305;46.410;17.394;2023-08-07T12:22:09;19.20;53.10
43561;DHT22;32305;46.410;17.394;2023-08-07T12:24:36;19.20;52.60
43561;DHT22;32305;46.410;17.394;2023-08-07T12:27:04;19.20;52.70
43561;DHT22;32305;46.410;17.394;2023-08-07T12:29:31;19.10;52.80
43561;DHT22;32305;46.410;17.394;2023-08-07T12:31:58;19.20;52.60
43561;DHT22;32305;46.410;17.394;2023-08-07T12:34:28;19.10;52.60
43561;DHT22;32305;46.410;17.394;2023-08-07T12:36:57;19.20;52.60
43561;DHT22;32305;46.410;17.394;2023-08-07T12:39:25;19.20;52.70
43561;DHT22;32305;46.410;17.394;2023-08-07T12:42:12;19.10;52.60
43561;DHT22;32305;46.410;17.394;2023-08-07T12:44:42;19.20;52.60
43561;DHT22;32305;46.410;17.394;2023-08-07T12:47:09;19.20;52.60
43561;DHT22;32305;46.410;17.394;2023-08-07T12:49:37;19.20;52.80
43561;DHT22;32305;46.410;17.394;2023-08-07T12:52:04;19.20;52.80
43561;DHT22;32305;46.410;17.394;2023-08-07T12:54:31;19.20;52.80
43561;DHT22;32305;46.410;17.394;2023-08-07T12:56:59;19.20;52.70
43561;DHT22;32305;46.410;17.394;2023-08-07T12:59:26;19.30;52.70
43561;DHT22;32305;46.410;17.394;2023-08-07T13:01:53;19.30;52.70
43561;DHT22;32305;46.410;17.394;2023-08-07T13:04:20;19.40;52.80
43561;DHT22;32305;46.410;17.394;2023-08-07T13:06:47;19.40;52.80
43561;DHT22;32305;46.410;17.394;2023-08-07T13:09:16;19.40;52.70
43561;DHT22;32305;46.410;17.394;2023-08-07T13:11:43;19.40;52.90
43561;DHT22;32305;46.410;17.394;2023-08-07T13:14:10;19.40;53.00
43561;DHT22;32305;46.410;17.394;2023-08-07T13:16:37;19.50;53.10
43561;DHT22;32305;46.410;17.394;2023-08-07T13:19:04;19.50;53.20
43561;DHT22;32305;46.410;17.394;2023-08-07T13:21:31;19.40;53.20
43561;DHT22;32305;46.410;17.394;2023-08-07T13:23:58;19.40;53.20
43561;DHT22;32305;46.410;17.394;2023-08-07T13:26:25;19.40;53.70
43561;DHT22;32305;46.410;17.394;2023-08-07T13:28:53;19.50;53.40
43561;DHT22;32305;46.410;17.394;2023-08-07T13:31:20;19.50;53.50
43561;DHT22;32305;46.410;17.394;2023-08-07T13:33:47;19.40;53.50
43561;DHT22;32305;46.410;17.394;2023-08-07T13:36:14;19.40;53.60
43561;DHT22;32305;46.410;17.394;2023-08-07T13:38:42;19.40;53.50
43561;DHT22;32305;46.410;17.394;2023-08-07T13:41:12;19.40;53.50
43561;DHT22;32305;46.410;17.394;2023-08-07T13:43:39;19.50;53.50
43561;DHT22;32305;46.410;17.394;2023-08-07T13:46:06;19.50;53.70
43561;DHT22;32305;46.410;17.394;2023-08-07T13:48:33;19.50;53.70
43561;DHT22;32305;46.410;17.394;2023-08-07T13:51:00;19.50;53.50
43561;DHT22;32305;46.410;17.394;2023-08-07T13:53:31;19.50;53.50
43561;DHT22;32305;46.410;17.394;2023-08-07T13:55:58;19.50;53.60
43561;DHT22;32305;46.410;17.394;2023-08-07T13:58:25;19.50;53.70
43561;DHT22;32305;46.410;17.394;2023-08-07T14:00:52;19.50;53.60
43561;DHT22;32305;46.410;17.394;2023-08-07T14:03:20;19.60;53.70
43561;DHT22;32305;46.410;17.394;2023-08-07T14:05:47;19.60;60.10
43561;DHT22;32305;46.410;17.394;2023-08-07T14:08:15;19.80;66.10
43561;DHT22;32305;46.410;17.394;2023-08-07T14:10:42;20.10;69.00
43561;DHT22;32305;46.410;17.394;2023-08-07T14:13:09;20.40;69.90
43561;DHT22;32305;46.410;17.394;2023-08-07T14:15:37;20.70;70.60
43561;DHT22;32305;46.410;17.394;2023-08-07T14:18:04;21.00;71.10
43561;DHT22;32305;46.410;17.394;2023-08-07T14:20:31;21.30;70.80
43561;DHT22;32305;46.410;17.394;2023-08-07T14:23:04;21.60;70.00
43561;DHT22;32305;46.410;17.394;2023-08-07T14:25:51;21.90;69.50
43561;DHT22;32305;46.410;17.394;2023-08-07T14:28:19;22.20;69.10
43561;DHT22;32305;46.410;17.394;2023-08-07T14:30:47;22.40;69.00
43561;DHT22;32305;46.410;17.394;2023-08-07T14:33:14;22.60;68.90
43561;DHT22;32305;46.410;17.394;2023-08-07T14:35:41;22.80;68.80
43561;DHT22;32305;46.410;17.394;2023-08-07T14:38:08;22.90;68.00
43561;DHT22;32305;46.410;17.394;2023-08-07T14:40:35;23.10;66.90
43561;DHT22;32305;46.410;17.394;2023-08-07T14:43:06;23.20;66.00
43561;DHT22;32305;46.410;17.394;2023-08-07T14:45:33;23.40;64.40
43561;DHT22;32305;46.410;17.394;2023-08-07T14:48:00;23.50;63.90
43561;DHT22;32305;46.410;17.394;2023-08-07T14:50:27;23.70;64.40
43561;DHT22;32305;46.410;17.394;2023-08-07T14:52:54;23.80;63.50
43561;DHT22;32305;46.410;17.394;2023-08-07T14:55:21;23.90;63.20
43561;DHT22;32305;46.410;17.394;2023-08-07T14:57:48;23.90;62.20
43561;DHT22;32305;46.410;17.394;2023-08-07T15:00:15;24.00;61.60
43561;DHT22;32305;46.410;17.394;2023-08-07T15:02:43;24.10;62.40
43561;DHT22;32305;46.410;17.394;2023-08-07T15:05:10;24.10;62.20
43561;DHT22;32305;46.410;17.394;2023-08-07T15:07:37;24.20;62.40
43561;DHT22;32305;46.410;17.394;2023-08-07T15:10:04;24.30;61.40
43561;DHT22;32305;46.410;17.394;2023-08-07T15:12:31;24.30;61.90
43561;DHT22;32305;46.410;17.394;2023-08-07T15:15:01;24.40;62.00
43561;DHT22;32305;46.410;17.394;2023-08-07T15:17:30;24.50;61.60
43561;DHT22;32305;46.410;17.394;2023-08-07T15:19:57;24.50;61.20
43561;DHT22;32305;46.410;17.394;2023-08-07T15:22:24;24.60;60.50